Savanna Army Depot, Illinois
Current Conditions -  °F | °C
As of 4:35 AM on Saturday 25 Oct 2014 (Local Time) from KSFY Reporting Station
Haze Haze  
Wind Chill: 60°   Ceiling: 600
Heat Index: 60°   Visibility: 4mi
Dew Point: 57°   Wind: 6mph
Humidity: 90%   Direction: 290°WNW
Pressure: 29.93"   Gusts: NA
Location:  42.1463°N, 90.1589°W
Report Text: KSFY 250935Z AUTO 29005KT 4SM BR OVC006 16/14 A2993 RMK AO2 T01550139
Loading
Personal Weather Stations






























Interactive Weather Map
Tropical Storm Tracking
New forecast layout! Learn more

10-Day Weather Forecast

Advertisements
Track Severe Weather on mobile